Terminal Aerodrome Forecast
Issued by NWS

Home | Current Version | Previous Version | Graphics & Text | Print | Product List | Glossary On
Versions: 1 2 3 4 5 6 7 8 9 10 11 12 13 14 15 16 17 18 19 20
000
FTUS43 KABR 072000 AAA
TAFMBG
TAF AMD
KMBG 072022Z 0720/0818 33016G24KT P6SM SCT040 SCT110
     FM072200 33016G24KT P6SM VCSH SCT050 SCT110
     FM080300 33007KT P6SM SKC
     FM081500 32013KT P6SM SCT030=

USA.gov is the U.S. government's official web portal to all federal, state and local government web resources and services.